Time;durP1;ratioP1;P1;durP2;ratioP2;P2;SDS_P1;SDS_P2;PMS_P1;PMS_P2;Temp;Humidity;BMP_temperature;BMP_pressure;BME280_temperature;BME280_humidity;BME280_pressure;Samples;Min_cycle;Max_cycle;Signal;HPM_P1;HPM_P2
2022/05/20 00:01:07;;;;;;;10.68;4.60;;;;;;;17.26;44.62;100724.48;1748872;82;22011;-68
2022/05/20 00:03:37;;;;;;;6.87;4.22;;;;;;;17.22;44.75;100730.48;1748697;82;21060;-68
2022/05/20 00:06:03;;;;;;;8.45;3.87;;;;;;;17.17;44.85;100726.24;1748911;82;20983;-67
2022/05/20 00:08:29;;;;;;;10.78;4.20;;;;;;;17.13;44.94;100721.78;1748753;82;20998;-68
2022/05/20 00:10:56;;;;;;;6.17;3.20;;;;;;;17.12;45.07;100714.72;1748785;81;20904;-68
2022/05/20 00:13:25;;;;;;;5.50;3.20;;;;;;;17.13;45.15;100702.91;1748834;82;21048;-67
2022/05/20 00:15:51;;;;;;;;;;;;;;;17.19;45.23;100707.47;1751777;81;21026;-67
2022/05/20 00:18:18;;;;;;;6.65;3.65;;;;;;;17.23;45.29;100719.51;1748991;81;20214;-67
2022/05/20 00:20:43;;;;;;;6.00;3.02;;;;;;;17.28;45.32;100711.62;1748867;82;21066;-68
2022/05/20 00:23:09;;;;;;;8.95;3.37;;;;;;;17.32;45.35;100712.87;1749023;82;21671;-68
2022/05/20 00:25:48;;;;;;;6.12;3.65;;;;;;;17.33;45.39;100706.45;1748884;81;21145;-67
2022/05/20 00:28:26;;;;;;;9.33;3.75;;;;;;;17.37;45.44;100730.62;1748998;82;20987;-68
2022/05/20 00:30:57;;;;;;;6.62;3.15;;;;;;;17.37;45.47;100718.48;1748699;82;21034;-67
2022/05/20 00:33:24;;;;;;;6.33;3.42;;;;;;;17.39;45.53;100724.49;1748910;81;21034;-67
2022/05/20 00:35:50;;;;;;;7.08;2.67;;;;;;;17.40;45.55;100719.42;1749013;82;21077;-68
2022/05/20 00:38:16;;;;;;;11.60;3.40;;;;;;;17.41;45.57;100732.39;1748807;82;21305;-68
2022/05/20 00:40:44;;;;;;;7.05;4.00;;;;;;;17.44;45.60;100734.67;1748885;82;21046;-68
2022/05/20 00:43:24;;;;;;;11.05;3.58;;;;;;;17.48;45.63;100731.87;1748639;82;21014;-68
2022/05/20 00:45:50;;;;;;;9.83;3.55;;;;;;;17.52;45.63;100736.34;1748452;82;21018;-68
2022/05/20 00:48:16;;;;;;;4.15;3.05;;;;;;;17.58;45.66;100722.88;1748499;82;21073;-68
2022/05/20 00:50:47;;;;;;;8.28;3.20;;;;;;;17.63;45.64;100716.84;1748983;81;21316;-67
2022/05/20 00:53:14;;;;;;;10.78;3.55;;;;;;;17.67;45.62;100720.78;1748822;82;21042;-68
2022/05/20 00:55:41;;;;;;;12.88;3.60;;;;;;;17.70;45.65;100714.97;1748952;82;21547;-68
2022/05/20 00:58:10;;;;;;;8.38;3.67;;;;;;;17.73;45.64;100709.19;1748895;82;21042;-68
2022/05/20 01:00:39;;;;;;;15.38;3.83;;;;;;;17.78;45.68;100702.11;1748701;81;21045;-68
2022/05/20 01:03:07;;;;;;;5.83;3.12;;;;;;;17.82;45.66;100718.71;1748943;81;21513;-67
2022/05/20 01:05:47;;;;;;;9.40;3.40;;;;;;;17.81;45.71;100714.34;1748706;81;21083;-68
2022/05/20 01:08:17;;;;;;;9.38;3.65;;;;;;;17.81;45.73;100723.27;1749170;81;21022;-68
2022/05/20 01:10:43;;;;;;;9.15;3.70;;;;;;;17.82;45.73;100736.25;1771395;79;20983;-67
2022/05/20 01:13:10;;;;;;;4.87;3.35;;;;;;;17.80;45.78;100739.69;1779897;80;21480;-68
2022/05/20 01:15:36;;;;;;;8.33;2.98;;;;;;;17.80;45.84;100732.40;1779941;80;21189;-68
2022/05/20 01:18:02;;;;;;;4.22;2.65;;;;;;;17.81;45.92;100738.11;1779795;80;20983;-67
2022/05/20 01:20:31;;;;;;;8.58;3.08;;;;;;;17.81;46.00;100735.93;1746698;80;20986;-68
2022/05/20 01:23:12;;;;;;;8.08;3.20;;;;;;;17.82;46.04;100750.58;1779848;80;21606;-67
2022/05/20 01:25:49;;;;;;;4.67;2.98;;;;;;;17.80;46.13;100738.34;1779437;80;21042;-68
2022/05/20 01:28:16;;;;;;;9.60;3.30;;;;;;;17.78;46.20;100744.45;1779823;80;21299;-68
2022/05/20 01:30:50;;;;;;;5.78;3.08;;;;;;;17.74;46.28;100740.50;1779778;80;21058;-68
2022/05/20 01:33:37;;;;;;;6.03;2.90;;;;;;;17.74;46.36;100743.20;1779968;80;21071;-68
2022/05/20 01:36:07;;;;;;;9.45;3.40;;;;;;;17.76;46.43;100741.14;1779751;80;20987;-68
2022/05/20 01:38:33;;;;;;;;;;;;;;;17.78;46.55;100733.66;1782338;80;21018;-68
2022/05/20 01:41:11;;;;;;;5.17;3.10;;;;;;;17.82;46.64;100744.34;1779767;80;21087;-68
2022/05/20 01:43:43;;;;;;;6.45;3.27;;;;;;;17.86;46.71;100744.24;1779740;80;20987;-68
2022/05/20 01:46:37;;;;;;;7.55;2.98;;;;;;;17.89;46.82;100739.26;1775111;80;20987;-67
2022/05/20 01:49:49;;;;;;;6.60;2.75;;;;;;;17.91;46.92;100754.70;1779871;80;21038;-68
2022/05/20 01:52:24;;;;;;;9.85;3.33;;;;;;;17.98;47.10;100748.78;1778293;80;21589;-68
2022/05/20 01:55:06;;;;;;;9.90;3.00;;;;;;;18.05;47.24;100759.56;1779910;80;21117;-67
2022/05/20 01:57:49;;;;;;;7.72;2.80;;;;;;;18.07;47.31;100754.81;1778973;80;21036;-67
2022/05/20 02:00:18;;;;;;;8.78;3.58;;;;;;;18.09;47.38;100756.77;1779649;80;21054;-68
2022/05/20 02:02:53;;;;;;;5.83;3.12;;;;;;;18.12;47.48;100759.59;1747993;80;26977;-68
2022/05/20 02:05:25;;;;;;;4.00;2.70;;;;;;;18.12;47.54;100763.09;1779576;80;21474;-68
2022/05/20 02:07:55;;;;;;;7.10;2.75;;;;;;;18.09;47.59;100766.21;1779919;80;21069;-68
2022/05/20 02:10:28;;;;;;;;;;;;;;;18.08;47.72;100780.77;1782352;80;21034;-68
2022/05/20 02:12:57;;;;;;;8.68;3.02;;;;;;;18.11;47.82;100772.25;1785697;80;20592;-68
2022/05/20 02:15:28;;;;;;;6.60;2.83;;;;;;;18.13;47.88;100778.77;1788190;80;21483;-68
2022/05/20 02:17:58;;;;;;;6.97;3.15;;;;;;;18.13;47.97;100774.20;1788062;80;21515;-67
2022/05/20 02:20:39;;;;;;;8.15;2.95;;;;;;;18.14;48.03;100789.89;1787832;80;21132;-68
2022/05/20 02:23:09;;;;;;;10.13;3.40;;;;;;;18.14;48.12;100789.37;1788036;80;20986;-68
2022/05/20 02:25:39;;;;;;;5.58;3.27;;;;;;;18.16;48.23;100795.89;1788075;80;21033;-68
2022/05/20 02:28:33;;;;;;;11.78;3.20;;;;;;;18.18;48.30;100801.42;1788272;80;20983;-68
2022/05/20 02:30:59;;;;;;;6.72;2.95;;;;;;;18.21;48.32;100804.20;1782986;80;20987;-68
2022/05/20 02:33:26;;;;;;;7.78;3.12;;;;;;;18.21;48.39;100813.14;1788427;78;21328;-68
2022/05/20 02:36:02;;;;;;;5.45;3.08;;;;;;;18.21;48.44;100814.49;1788067;80;21465;-68
2022/05/20 02:38:28;;;;;;;7.50;3.20;;;;;;;18.21;48.53;100807.74;1788200;80;21034;-68
2022/05/20 02:40:54;;;;;;;4.97;2.58;;;;;;;18.23;48.60;100812.40;1788162;80;20945;-68
2022/05/20 02:43:21;;;;;;;4.10;2.87;;;;;;;18.25;48.68;100806.28;1788043;80;21065;-68
2022/05/20 02:45:48;;;;;;;6.90;3.12;;;;;;;18.27;48.76;100801.49;1788373;80;21768;-68
2022/05/20 02:48:16;;;;;;;4.62;2.77;;;;;;;18.28;48.84;100808.56;1788151;80;21014;-69
2022/05/20 02:50:42;;;;;;;6.90;2.70;;;;;;;18.29;48.97;100812.94;1788317;80;21045;-68
2022/05/20 02:53:08;;;;;;;7.72;2.75;;;;;;;18.31;49.06;100815.41;1788212;80;20994;-68
2022/05/20 02:55:35;;;;;;;7.95;3.00;;;;;;;18.30;49.13;100811.88;1788439;80;21517;-68
2022/05/20 02:58:01;;;;;;;5.78;3.00;;;;;;;18.31;49.25;100812.19;1787960;78;21166;-68
2022/05/20 03:05:56;;;;;;;5.28;2.62;;;;;;;18.27;49.53;100815.00;1787724;80;21029;-68
2022/05/20 03:08:23;;;;;;;10.70;3.42;;;;;;;18.26;49.65;100821.97;1788272;80;20998;-68
2022/05/20 03:10:49;;;;;;;4.75;3.12;;;;;;;18.25;49.78;100817.60;1787710;80;21145;-68
2022/05/20 03:13:15;;;;;;;6.05;3.50;;;;;;;18.23;49.88;100825.06;1781233;80;20999;-68
2022/05/20 03:15:41;;;;;;;11.15;2.92;;;;;;;18.22;49.99;100822.91;1779924;80;21039;-68
2022/05/20 03:18:08;;;;;;;3.52;2.72;;;;;;;18.21;50.10;100817.19;1779765;80;20982;-68
2022/05/20 03:20:34;;;;;;;7.67;3.58;;;;;;;18.20;50.19;100818.73;1779953;80;21034;-68
2022/05/20 03:23:01;;;;;;;6.53;3.25;;;;;;;18.18;50.29;100821.66;1779882;80;21794;-68
2022/05/20 03:25:27;;;;;;;8.05;3.33;;;;;;;18.19;50.42;100821.95;1780009;80;21545;-68
2022/05/20 03:27:53;;;;;;;7.08;3.55;;;;;;;18.18;50.61;100820.31;1779638;80;20985;-68
2022/05/20 03:30:19;;;;;;;6.78;3.35;;;;;;;18.18;50.76;100816.27;1779811;80;21010;-68
2022/05/20 03:32:45;;;;;;;4.53;3.02;;;;;;;18.19;50.94;100828.70;1779971;80;21050;-68
2022/05/20 03:35:12;;;;;;;7.40;2.95;;;;;;;18.21;51.08;100834.74;1779960;80;21172;-68
2022/05/20 03:37:38;;;;;;;7.03;3.17;;;;;;;18.22;51.22;100830.18;1779776;80;21490;-68
2022/05/20 03:40:05;;;;;;;7.17;3.17;;;;;;;18.22;51.41;100832.88;1779841;80;21022;-68
2022/05/20 03:42:31;;;;;;;5.92;3.35;;;;;;;18.23;51.56;100839.40;1779845;79;21148;-68
2022/05/20 03:44:57;;;;;;;8.40;3.17;;;;;;;18.23;51.74;100835.35;1779474;80;21620;-68
2022/05/20 03:47:23;;;;;;;6.72;3.00;;;;;;;18.24;51.92;100839.72;1779953;80;21163;-68
2022/05/20 03:49:49;;;;;;;8.28;3.60;;;;;;;18.24;52.13;100843.77;1779701;80;20975;-68
2022/05/20 03:52:15;;;;;;;4.67;2.95;;;;;;;18.29;52.38;100855.30;1779893;80;20938;-68
2022/05/20 03:54:42;;;;;;;7.58;3.02;;;;;;;18.34;52.52;100852.78;1747673;80;21029;-68
2022/05/20 03:57:08;;;;;;;6.58;3.10;;;;;;;18.38;52.66;100854.88;1779927;79;21334;-68
2022/05/20 03:59:36;;;;;;;11.75;2.65;;;;;;;18.43;52.84;100857.78;1779958;80;21889;-67
2022/05/20 04:02:06;;;;;;;10.88;3.55;;;;;;;18.52;53.08;100856.23;1779783;80;21475;-67
2022/05/20 04:04:37;;;;;;;;;;;;;;;18.58;53.20;100854.05;1782115;80;21017;-68
2022/05/20 04:07:11;;;;;;;4.87;3.30;;;;;;;18.62;53.35;100857.97;1779935;80;20174;-68
2022/05/20 04:09:37;;;;;;;4.72;3.22;;;;;;;18.67;53.50;100862.23;1779872;80;21085;-68
2022/05/20 04:12:06;;;;;;;9.30;2.90;;;;;;;18.71;53.71;100858.07;1779750;79;21308;-68
2022/05/20 04:14:32;;;;;;;6.07;3.40;;;;;;;18.76;53.95;100863.66;1748401;80;20991;-68
2022/05/20 04:16:58;;;;;;;7.62;3.40;;;;;;;18.80;54.10;100863.03;1780049;80;21050;-68
2022/05/20 04:19:24;;;;;;;5.85;3.40;;;;;;;18.81;54.17;100876.86;1779689;80;21597;-68
2022/05/20 04:21:52;;;;;;;7.40;3.25;;;;;;;18.82;54.31;100875.79;1780178;80;20999;-68
2022/05/20 04:24:19;;;;;;;4.40;2.83;;;;;;;18.83;54.45;100879.33;1778988;80;21900;-68
2022/05/20 04:26:45;;;;;;;4.37;3.02;;;;;;;18.84;54.66;100879.65;1779986;80;20976;-68
2022/05/20 04:29:11;;;;;;;5.30;3.25;;;;;;;18.84;54.87;100878.30;1780007;80;20930;-68
2022/05/20 04:31:41;;;;;;;9.85;3.85;;;;;;;18.85;55.03;100883.50;1779713;80;21452;-68
2022/05/20 04:34:07;;;;;;;7.42;3.40;;;;;;;18.95;55.27;100880.34;1779849;80;21356;-68
2022/05/20 04:36:33;;;;;;;4.45;3.20;;;;;;;19.61;55.15;100883.62;1779988;80;21240;-69
2022/05/20 04:38:59;;;;;;;4.80;2.70;;;;;;;20.04;54.87;100885.11;1779913;80;21042;-68
2022/05/20 04:46:57;;;;;;;9.58;2.80;;;;;;;20.67;54.60;100885.00;1779951;80;21019;-68
2022/05/20 04:49:28;;;;;;;6.03;3.45;;;;;;;20.83;54.46;100889.82;1779692;80;21154;-68
2022/05/20 04:51:54;;;;;;;4.87;2.62;;;;;;;21.02;54.30;100889.31;1779783;80;20991;-69
2022/05/20 04:57:05;;;;;;;6.62;3.58;;;;;;;21.66;53.85;100894.99;1779723;80;20995;-69
2022/05/20 04:59:36;;;;;;;5.05;2.90;;;;;;;22.09;53.57;100900.23;1780008;80;21456;-69
2022/05/20 05:02:02;;;;;;;8.48;2.72;;;;;;;22.52;53.23;100897.75;1779983;80;21163;-69
2022/05/20 05:04:28;;;;;;;6.12;2.83;;;;;;;22.83;52.74;100900.14;1779659;80;21026;-69
2022/05/20 05:06:54;;;;;;;9.48;2.90;;;;;;;23.07;52.24;100890.87;1779424;80;21456;-69
2022/05/20 05:09:20;;;;;;;4.60;2.85;;;;;;;23.20;51.81;100891.13;1777261;79;21627;-69
2022/05/20 05:11:47;;;;;;;14.18;2.75;;;;;;;23.42;51.52;100891.33;1776256;79;20991;-69
2022/05/20 05:14:17;;;;;;;13.68;2.90;;;;;;;23.21;50.94;100890.90;1736653;81;21492;-69
2022/05/20 05:16:41;;;;;;;5.50;2.58;;;;;;;22.85;50.72;100888.47;1748292;81;20987;-69
2022/05/20 05:19:07;;;;;;;6.45;3.62;;;;;;;22.71;50.69;100889.25;1738394;81;21577;-70
2022/05/20 05:21:33;;;;;;;12.28;3.27;;;;;;;22.65;50.65;100885.27;1726837;83;21003;-69
2022/05/20 05:24:00;;;;;;;5.78;3.20;;;;;;;22.80;50.57;100893.78;1726845;82;21022;-69
2022/05/20 05:26:31;;;;;;;4.70;2.80;;;;;;;22.86;50.50;100894.22;1726931;83;21957;-69
2022/05/20 05:28:57;;;;;;;8.45;2.72;;;;;;;23.11;50.44;100902.94;1726705;83;21007;-69
2022/05/20 05:31:24;;;;;;;7.72;3.30;;;;;;;23.35;50.25;100899.61;1726756;83;21564;-70
2022/05/20 05:33:50;;;;;;;10.13;3.25;;;;;;;23.41;50.09;100904.11;1726772;82;21012;-69
2022/05/20 05:36:18;;;;;;;14.03;3.35;;;;;;;23.25;49.95;100900.23;1726750;83;21563;-70
2022/05/20 05:38:44;;;;;;;4.97;2.70;;;;;;;23.25;49.96;100896.16;1726811;83;21434;-69
2022/05/20 05:41:10;;;;;;;6.67;3.30;;;;;;;23.45;49.93;100899.01;1726535;82;21054;-69
2022/05/20 05:43:37;;;;;;;6.33;2.60;;;;;;;23.58;49.84;100901.44;1726926;83;21661;-70
2022/05/20 05:46:04;;;;;;;13.83;3.30;;;;;;;23.76;49.70;100908.05;1726311;82;21047;-70
2022/05/20 05:48:30;;;;;;;9.10;3.15;;;;;;;23.71;49.44;100918.87;1726439;82;21400;-70
2022/05/20 05:50:56;;;;;;;9.63;2.95;;;;;;;23.62;49.41;100905.33;1726647;81;21511;-70
2022/05/20 05:53:24;;;;;;;18.48;3.77;;;;;;;23.72;49.39;100913.70;1726248;81;20915;-70
2022/05/20 05:55:58;;;;;;;5.17;2.87;;;;;;;23.83;49.30;100904.64;1727004;83;20998;-70
2022/05/20 05:58:26;;;;;;;4.47;2.60;;;;;;;23.87;49.23;100908.54;1726292;82;21026;-70
2022/05/20 06:00:54;;;;;;;7.83;2.75;;;;;;;23.83;49.12;100901.39;1726847;83;21557;-70
2022/05/20 06:03:21;;;;;;;10.45;2.50;;;;;;;23.99;49.08;100903.03;1726582;82;21595;-70
2022/05/20 06:05:47;;;;;;;10.15;2.58;;;;;;;23.97;48.94;100905.16;1726208;83;21042;-70
2022/05/20 06:08:14;;;;;;;7.17;2.42;;;;;;;23.97;48.87;100906.52;1726593;81;21396;-70
2022/05/20 06:10:40;;;;;;;7.35;2.90;;;;;;;24.26;48.89;100910.36;1726667;83;20980;-70
2022/05/20 06:13:06;;;;;;;8.35;3.00;;;;;;;24.48;48.67;100910.98;1733240;81;21557;-70
2022/05/20 06:15:32;;;;;;;4.35;3.05;;;;;;;24.50;48.49;100910.17;1748539;81;21728;-70
2022/05/20 06:17:58;;;;;;;5.03;2.70;;;;;;;24.42;48.34;100907.89;1748798;82;20863;-70
2022/05/20 06:20:25;;;;;;;5.08;2.80;;;;;;;24.43;48.21;100906.80;1748724;82;21464;-70
2022/05/20 06:22:51;;;;;;;5.10;2.80;;;;;;;24.36;48.16;100906.43;1748631;82;21051;-70
2022/05/20 06:25:17;;;;;;;3.65;2.67;;;;;;;24.32;48.20;100907.16;1748691;82;21092;-71
2022/05/20 06:27:45;;;;;;;7.37;4.05;;;;;;;24.57;48.22;100906.74;1748723;81;22714;-70
2022/05/20 06:30:15;;;;;;;9.30;3.80;;;;;;;24.86;48.04;100909.67;1748685;82;20967;-70
2022/05/20 06:32:40;;;;;;;;;;;;;;;24.90;47.78;100913.55;1751339;81;21041;-70
2022/05/20 06:40:44;;;;;;;11.12;2.30;;;;;;;24.91;47.45;100913.02;1748815;82;21654;-70
2022/05/20 06:43:18;;;;;;;3.72;2.85;;;;;;;24.80;47.26;100921.57;1748662;82;21403;-70
2022/05/20 06:45:45;;;;;;;6.97;3.52;;;;;;;24.78;47.29;100918.25;1748376;82;21021;-70
2022/05/20 06:48:12;;;;;;;3.95;2.22;;;;;;;25.01;47.31;100910.43;1749018;82;20974;-70
2022/05/20 06:50:39;;;;;;;6.12;2.58;;;;;;;25.10;47.09;100915.72;1748515;81;20997;-70
2022/05/20 06:53:05;;;;;;;5.90;2.20;;;;;;;25.03;47.03;100918.64;1749084;80;22373;-70
2022/05/20 06:55:32;;;;;;;5.03;2.20;;;;;;;24.84;46.89;100917.27;1758476;80;21463;-70
2022/05/20 06:57:58;;;;;;;5.67;2.10;;;;;;;24.83;47.00;100926.55;1766618;80;21002;-70
2022/05/20 07:00:24;;;;;;;9.20;2.92;;;;;;;25.01;47.02;100923.54;1749475;80;21601;-70
2022/05/20 07:02:50;;;;;;;8.70;2.60;;;;;;;25.29;46.95;100915.18;1753293;80;20900;-70
2022/05/20 07:05:16;;;;;;;6.70;2.50;;;;;;;25.50;46.82;100915.41;1759045;80;21821;-70
2022/05/20 07:07:42;;;;;;;7.80;2.00;;;;;;;25.57;46.61;100921.54;1753274;80;20864;-70
2022/05/20 07:10:10;;;;;;;8.03;2.62;;;;;;;25.58;46.32;100918.53;1769677;79;21506;-70
2022/05/20 07:12:36;;;;;;;7.42;2.40;;;;;;;25.38;46.15;100925.63;1747878;80;21410;-70
2022/05/20 07:15:03;;;;;;;3.60;2.20;;;;;;;25.29;46.05;100917.91;1756022;80;21053;-70
2022/05/20 07:17:29;;;;;;;3.15;2.25;;;;;;;25.27;46.00;100924.68;1774648;78;21896;-70
2022/05/20 07:19:55;;;;;;;6.87;2.62;;;;;;;25.34;45.96;100931.61;1805298;79;20988;-70
2022/05/20 07:22:21;;;;;;;7.95;2.77;;;;;;;25.58;45.92;100935.49;1731123;81;20971;-70
2022/05/20 07:24:47;;;;;;;15.13;2.98;;;;;;;25.48;45.69;100936.68;1725465;81;20872;-70
2022/05/20 07:27:13;;;;;;;7.03;2.47;;;;;;;25.49;45.66;100938.34;1702320;83;21725;-69
2022/05/20 07:29:38;;;;;;;8.18;2.45;;;;;;;25.34;45.61;100938.44;1715063;82;21847;-70
2022/05/20 07:32:05;;;;;;;6.92;2.62;;;;;;;25.36;45.57;100934.09;1705841;82;20892;-70
2022/05/20 07:34:32;;;;;;;7.72;2.62;;;;;;;25.45;45.47;100937.19;1704566;82;21015;-70
2022/05/20 07:36:58;;;;;;;5.62;2.60;;;;;;;25.37;45.49;100945.86;1702921;82;21055;-70
2022/05/20 07:39:24;;;;;;;5.03;3.27;;;;;;;25.49;45.57;100932.88;1730554;82;20884;-70
2022/05/20 07:41:51;;;;;;;4.92;2.45;;;;;;;25.59;45.56;100943.95;1732425;82;21815;-70
2022/05/20 07:44:18;;;;;;;2.98;2.05;;;;;;;25.54;45.55;100936.55;1719195;82;20952;-70
2022/05/20 07:46:44;;;;;;;5.50;2.62;;;;;;;25.55;45.54;100940.08;1712540;82;21000;-70
2022/05/20 07:49:10;;;;;;;9.20;3.02;;;;;;;25.42;45.60;100952.73;1725833;82;20919;-70
2022/05/20 07:51:39;;;;;;;14.03;2.95;;;;;;;25.47;45.64;100951.44;1707390;82;20932;-70
2022/05/20 07:54:10;;;;;;;4.17;2.47;;;;;;;25.55;45.68;100935.44;1703622;83;21809;-70
2022/05/20 07:56:40;;;;;;;5.37;2.90;;;;;;;25.59;45.65;100939.31;1712921;82;21070;-69
2022/05/20 07:59:12;;;;;;;10.75;2.92;;;;;;;25.70;45.63;100938.89;1729001;82;21018;-69
2022/05/20 08:01:42;;;;;;;11.08;3.52;;;;;;;25.65;45.49;100942.95;1714700;82;21030;-69
2022/05/20 08:06:59;;;;;;;7.42;3.58;;;;;;;25.66;45.45;100933.66;1707134;82;21997;-70
2022/05/20 08:09:26;;;;;;;7.28;3.25;;;;;;;25.66;45.41;100935.02;1711681;82;21511;-70
2022/05/20 08:11:52;;;;;;;6.22;3.02;;;;;;;25.77;45.33;100931.31;1732631;82;21047;-70
2022/05/20 08:14:18;;;;;;;4.35;3.10;;;;;;;25.77;45.22;100932.69;1719618;82;21015;-70
2022/05/20 08:16:44;;;;;;;3.95;3.55;;;;;;;25.98;45.24;100934.55;1699367;84;20986;-70
2022/05/20 08:19:10;;;;;;;6.90;2.60;;;;;;;26.06;45.13;100925.89;1735636;81;22104;-70
2022/05/20 08:21:36;;;;;;;9.70;3.62;;;;;;;26.32;45.16;100927.78;1728802;81;21668;-71
2022/05/20 08:24:02;;;;;;;5.22;3.12;;;;;;;26.34;44.91;100931.63;1751192;81;21002;-70
2022/05/20 08:26:28;;;;;;;5.30;3.72;;;;;;;26.33;44.92;100928.61;1696193;84;21042;-70
2022/05/20 08:28:54;;;;;;;6.33;3.50;;;;;;;26.11;44.77;100931.38;1696796;83;20924;-70
2022/05/20 08:31:20;;;;;;;7.45;3.05;;;;;;;26.02;44.82;100932.95;1697207;83;21834;-70
2022/05/20 08:33:47;;;;;;;4.62;3.00;;;;;;;25.97;44.88;100927.42;1696210;84;20972;-70
2022/05/20 08:36:13;;;;;;;6.53;3.33;;;;;;;25.59;44.76;100931.66;1721994;83;21000;-70
2022/05/20 08:38:40;;;;;;;8.28;3.47;;;;;;;25.57;45.01;100929.73;1724506;83;20964;-70
2022/05/20 08:41:06;;;;;;;10.55;3.52;;;;;;;25.67;45.04;100926.58;1697887;83;21058;-70
2022/05/20 08:43:33;;;;;;;7.72;3.45;;;;;;;25.74;45.07;100937.30;1696516;84;21860;-70
2022/05/20 08:46:00;;;;;;;3.50;3.20;;;;;;;25.84;45.08;100933.31;1716978;83;21503;-69
2022/05/20 08:48:26;;;;;;;7.60;3.37;;;;;;;25.72;45.12;100929.91;1718488;83;21022;-70
2022/05/20 08:50:56;;;;;;;10.20;3.75;;;;;;;25.89;45.30;100929.81;1696852;83;20996;-70
2022/05/20 08:53:36;;;;;;;6.28;3.60;;;;;;;26.10;45.19;100924.29;1696430;83;21058;-70
2022/05/20 08:56:03;;;;;;;;;;;;;;;26.15;45.04;100920.75;1704295;83;22497;-70
2022/05/20 08:58:30;;;;;;;18.17;3.60;;;;;;;26.12;44.81;100918.00;1696615;83;20732;-70
2022/05/20 09:00:56;;;;;;;10.70;3.33;;;;;;;26.05;44.75;100926.95;1698583;83;21003;-70
2022/05/20 09:03:22;;;;;;;5.62;3.62;;;;;;;25.99;44.67;100923.91;1696580;83;20975;-70
2022/05/20 09:05:48;;;;;;;9.40;3.15;;;;;;;25.94;44.72;100924.38;1696400;83;21018;-70
2022/05/20 09:08:28;;;;;;;6.28;3.00;;;;;;;26.14;44.64;100913.09;1696408;84;22406;-70
2022/05/20 09:10:57;;;;;;;7.40;3.22;;;;;;;26.09;44.47;100912.23;1701392;83;21048;-70
2022/05/20 09:16:30;;;;;;;7.75;3.42;;;;;;;26.23;44.52;100904.74;1725244;83;21019;-70
2022/05/20 09:19:12;;;;;;;9.93;3.60;;;;;;;26.41;44.42;100905.42;1728550;81;21576;-70
2022/05/20 09:21:44;;;;;;;6.83;3.45;;;;;;;26.16;44.00;100901.91;1727407;83;22570;-70
2022/05/20 09:24:20;;;;;;;5.80;3.27;;;;;;;25.82;43.97;100908.16;1703544;82;21109;-70
2022/05/20 09:26:53;;;;;;;6.12;3.35;;;;;;;25.85;44.00;100911.73;1708571;83;21011;-70
2022/05/20 09:29:41;;;;;;;6.28;3.35;;;;;;;25.60;43.90;100894.53;1714362;82;20978;-69
2022/05/20 09:32:43;;;;;;;3.30;2.45;;;;;;;25.45;43.93;100903.05;1710467;83;21066;-70
2022/05/20 09:35:22;;;;;;;6.95;2.72;;;;;;;25.53;43.90;100895.81;1728375;83;21780;-69
2022/05/20 09:37:50;;;;;;;7.15;3.20;;;;;;;25.68;43.69;100892.72;1716103;83;21117;-69
2022/05/20 09:40:38;;;;;;;8.65;3.22;;;;;;;25.79;43.55;100897.17;1750747;81;21018;-69
2022/05/20 09:43:10;;;;;;;3.58;2.62;;;;;;;25.93;43.42;100902.25;1724114;83;21317;-70
2022/05/20 09:45:46;;;;;;;3.27;2.50;;;;;;;26.01;43.37;100888.92;1728394;83;21358;-70
2022/05/20 09:48:35;;;;;;;6.95;2.95;;;;;;;26.22;43.40;100897.61;1729298;81;21850;-70
2022/05/20 09:51:16;;;;;;;3.83;2.90;;;;;;;26.25;43.11;100892.16;1736461;82;20999;-70
2022/05/20 09:53:44;;;;;;;4.75;2.60;;;;;;;26.27;43.02;100892.20;1756553;81;21078;-70
2022/05/20 09:56:24;;;;;;;2.75;2.45;;;;;;;26.35;42.87;100880.49;1733384;81;21818;-70
2022/05/20 09:59:17;;;;;;;4.30;2.90;;;;;;;26.46;42.83;100883.59;1739932;81;21094;-69
2022/05/20 10:02:16;;;;;;;5.03;2.75;;;;;;;26.64;42.73;100887.24;1745926;81;21717;-70
2022/05/20 10:05:11;;;;;;;14.07;3.75;;;;;;;26.72;42.50;100894.97;1729958;81;20971;-70
2022/05/20 10:08:09;;;;;;;5.17;3.00;;;;;;;26.50;42.33;100890.16;1755297;81;21023;-70
2022/05/20 10:10:55;;;;;;;7.33;2.90;;;;;;;26.51;42.30;100883.06;1740512;81;21010;-70
2022/05/20 10:13:30;;;;;;;5.40;3.10;;;;;;;26.53;42.22;100882.25;1731968;81;21046;-70
2022/05/20 10:16:33;;;;;;;5.25;2.92;;;;;;;26.65;42.05;100876.59;1735599;81;21731;-70
2022/05/20 10:19:23;;;;;;;6.55;3.00;;;;;;;26.59;41.86;100869.44;1730025;81;21051;-70
2022/05/20 10:22:31;;;;;;;13.30;4.72;;;;;;;26.71;41.80;100865.41;1739230;81;20999;-70
2022/05/20 10:25:13;;;;;;;10.40;3.60;;;;;;;26.89;41.72;100861.42;1729091;81;21761;-70
2022/05/20 10:27:59;;;;;;;3.20;2.90;;;;;;;26.89;41.30;100861.42;1752150;81;21007;-70
2022/05/20 10:33:26;;;;;;;7.05;3.30;;;;;;;26.84;40.98;100855.94;1703440;83;21061;-70
2022/05/20 10:36:31;;;;;;;11.85;3.85;;;;;;;26.89;40.94;100866.90;1704173;83;21015;-70
2022/05/20 10:39:10;;;;;;;4.67;3.60;;;;;;;26.73;41.03;100869.25;1727256;83;21006;-70
2022/05/20 10:42:03;;;;;;;7.67;3.52;;;;;;;26.45;40.99;100868.25;1729028;83;21061;-70
2022/05/20 10:50:41;;;;;;;8.08;3.20;;;;;;;25.93;41.54;100865.34;1728551;83;21077;-70
2022/05/20 10:53:24;;;;;;;4.33;2.77;;;;;;;26.02;41.77;100860.50;1728134;83;21816;-70
2022/05/20 10:56:08;;;;;;;12.80;3.92;;;;;;;26.03;41.88;100854.50;1728490;83;21321;-70
2022/05/20 10:58:49;;;;;;;4.33;2.65;;;;;;;25.78;41.92;100852.36;1728434;83;21865;-70
2022/05/20 11:01:51;;;;;;;7.92;3.33;;;;;;;25.66;42.05;100854.41;1729016;83;20983;-69
2022/05/20 11:04:48;;;;;;;8.43;3.27;;;;;;;25.67;42.20;100856.08;1728429;83;21121;-70
2022/05/20 11:07:53;;;;;;;5.25;2.72;;;;;;;25.58;42.32;100850.80;1729258;83;21005;-70
2022/05/20 11:10:58;;;;;;;10.80;2.90;;;;;;;25.61;42.43;100851.65;1728872;83;21508;-70
2022/05/20 11:13:33;;;;;;;10.55;2.95;;;;;;;25.77;42.34;100848.80;1729098;83;21690;-69
2022/05/20 11:16:44;;;;;;;9.48;2.77;;;;;;;25.87;42.21;100854.06;1728261;83;21430;-70
2022/05/20 11:19:56;;;;;;;11.55;3.35;;;;;;;25.82;42.00;100850.77;1729063;82;21435;-70
2022/05/20 11:22:34;;;;;;;4.87;2.67;;;;;;;25.75;41.86;100859.17;1728242;83;21523;-70
2022/05/20 11:25:38;;;;;;;5.00;2.58;;;;;;;25.67;41.79;100850.61;1729058;83;21081;-70
2022/05/20 11:28:18;;;;;;;8.13;2.70;;;;;;;25.66;41.73;100848.95;1729117;83;22636;-69
2022/05/20 11:30:53;;;;;;;5.33;3.30;;;;;;;25.61;41.46;100850.28;1728644;83;20998;-69
2022/05/20 11:33:34;;;;;;;5.58;2.83;;;;;;;25.62;41.31;100850.55;1728870;83;21431;-70
2022/05/20 11:36:15;;;;;;;2.83;2.52;;;;;;;25.41;41.34;100848.65;1693394;83;20998;-70
2022/05/20 11:39:16;;;;;;;;;;;;;;;25.35;41.55;100843.15;1731159;83;21463;-69
2022/05/20 11:42:18;;;;;;;5.50;2.60;;;;;;;25.41;41.76;100828.17;1729450;83;21957;-69
2022/05/20 11:45:10;;;;;;;7.37;2.40;;;;;;;25.38;41.70;100825.95;1729015;82;21015;-70
2022/05/20 11:47:56;;;;;;;19.98;3.65;;;;;;;25.43;41.76;100820.02;1729111;83;21700;-69
2022/05/20 11:50:44;;;;;;;9.33;3.12;;;;;;;25.64;41.73;100816.44;1729181;82;21058;-70
2022/05/20 11:53:16;;;;;;;3.17;2.72;;;;;;;25.91;41.58;100815.03;1729141;82;21038;-70
2022/05/20 11:55:54;;;;;;;10.23;2.85;;;;;;;25.96;41.23;100809.62;1728858;83;22628;-70
2022/05/20 11:58:45;;;;;;;4.55;2.90;;;;;;;25.98;41.01;100814.27;1729076;83;21014;-70
2022/05/20 12:01:11;;;;;;;8.98;3.95;;;;;;;25.99;40.78;100813.19;1727339;83;21020;-70
2022/05/20 12:04:22;;;;;;;8.40;4.50;;;;;;;26.05;40.71;100803.94;1729095;83;20967;-70
2022/05/20 12:06:05;;;;;;;8.98;3.60;;;;;;;26.14;40.46;100798.81;1701002;83;21025;-70
2022/05/20 12:08:46;;;;;;;3.72;2.70;;;;;;;26.18;40.14;100799.41;1680468;83;21878;-70
2022/05/20 12:11:37;;;;;;;4.03;2.65;;;;;;;26.22;39.92;100799.70;1729037;83;21442;-70
2022/05/20 12:14:09;;;;;;;8.45;3.10;;;;;;;26.23;39.71;100789.88;1728760;83;21384;-70
2022/05/20 12:17:02;;;;;;;3.60;2.90;;;;;;;26.21;39.54;100787.94;1704103;83;21078;-70
2022/05/20 12:25:36;;;;;;;16.82;6.28;;;;;;;26.16;39.07;100779.69;1748842;81;20926;-70
2022/05/20 12:28:23;;;;;;;6.50;3.20;;;;;;;26.19;39.00;100776.45;1748788;81;20983;-70
2022/05/20 12:31:15;;;;;;;14.05;4.78;;;;;;;25.98;38.63;100788.30;1747424;82;21042;-70